createdAt,value
2023-04-14T00:01:00.502Z,96165.44
2023-04-14T00:03:27.208Z,96160.44
2023-04-14T00:05:53.813Z,96149.81
2023-04-14T00:08:20.394Z,96149.13
2023-04-14T00:10:47.000Z,96154.75
2023-04-14T00:13:13.453Z,96160.44
2023-04-14T00:15:41.606Z,96152.97
2023-04-14T00:18:08.134Z,96161.69
2023-04-14T00:20:34.771Z,96165.63
2023-04-14T00:23:01.233Z,96175.47
2023-04-14T00:25:27.717Z,96167.72
2023-04-14T00:27:54.384Z,96168.75
2023-04-14T00:30:20.877Z,96173.97
2023-04-14T00:32:47.427Z,96168.38
2023-04-14T00:35:13.935Z,96168.75
2023-04-14T00:37:40.396Z,96180.13
2023-04-14T00:40:11.031Z,96183.88
2023-04-14T00:42:47.054Z,96181.16
2023-04-14T00:45:14.390Z,96184.84
2023-04-14T00:47:42.232Z,96185.06
2023-04-14T00:50:09.329Z,96170.41
2023-04-14T00:52:37.131Z,96162.44
2023-04-14T00:55:07.293Z,96155.38
2023-04-14T00:57:33.955Z,96136.41
2023-04-14T01:00:00.874Z,96127.63
2023-04-14T01:02:27.731Z,96122.94
2023-04-14T01:04:55.002Z,96117.22
2023-04-14T01:07:23.017Z,96118.06
2023-04-14T01:09:50.249Z,96115.59
2023-04-14T01:12:35.991Z,96113.31
2023-04-14T01:15:12.677Z,96104.06
2023-04-14T01:17:45.972Z,96108.81
2023-04-14T01:20:22.884Z,96109.56
2023-04-14T01:22:53.815Z,96098.25
2023-04-14T01:25:22.243Z,96092.59
2023-04-14T01:27:55.010Z,96088.25
2023-04-14T01:30:31.108Z,96077.88
2023-04-14T01:33:01.495Z,96073.84
2023-04-14T01:35:34.758Z,96074.16
2023-04-14T01:38:04.995Z,96083.69
2023-04-14T01:40:32.591Z,96095.25
2023-04-14T01:43:04.001Z,96091.22
2023-04-14T01:45:42.985Z,96093.91
2023-04-14T01:48:11.677Z,96081.00
2023-04-14T01:50:41.051Z,96076.91
2023-04-14T01:53:08.728Z,96084.19
2023-04-14T01:55:37.801Z,96084.00
2023-04-14T01:58:07.080Z,96074.81
2023-04-14T02:00:35.618Z,96063.16
2023-04-14T02:03:03.932Z,96057.69
2023-04-14T02:05:32.055Z,96058.63
2023-04-14T02:07:59.740Z,96055.31
2023-04-14T02:10:27.581Z,96050.13
2023-04-14T02:12:57.096Z,96051.75
2023-04-14T02:15:25.818Z,96043.28
2023-04-14T02:17:52.766Z,96050.59
2023-04-14T02:20:21.153Z,96043.13
2023-04-14T02:22:47.839Z,96058.31
2023-04-14T02:25:14.385Z,96048.47
2023-04-14T02:27:54.566Z,96046.63
2023-04-14T02:30:24.306Z,96043.81
2023-04-14T02:32:55.546Z,96045.97
2023-04-14T02:35:26.800Z,96050.97
2023-04-14T02:38:04.782Z,96060.47
2023-04-14T02:40:35.138Z,96047.59
2023-04-14T02:43:04.512Z,96029.69
2023-04-14T02:45:32.428Z,96025.06
2023-04-14T02:48:01.606Z,96031.44
2023-04-14T02:50:32.226Z,96035.94
2023-04-14T02:53:07.553Z,96032.09
2023-04-14T02:55:37.471Z,96026.06
2023-04-14T02:58:04.781Z,96017.38
2023-04-14T03:00:35.740Z,96019.06
2023-04-14T03:03:03.974Z,96018.41
2023-04-14T03:05:32.036Z,96019.72
2023-04-14T03:08:08.294Z,96023.41
2023-04-14T03:10:37.148Z,96029.59
2023-04-14T03:13:04.803Z,96020.22
2023-04-14T03:15:31.784Z,96024.06
2023-04-14T03:17:58.744Z,96024.25
2023-04-14T03:20:26.902Z,96025.91
2023-04-14T03:23:05.139Z,96022.41
2023-04-14T03:25:38.245Z,96033.28
2023-04-14T03:28:13.526Z,96021.72
2023-04-14T03:30:43.235Z,96005.34
2023-04-14T03:33:12.211Z,96018.72
2023-04-14T03:35:39.370Z,96027.75
2023-04-14T03:38:09.725Z,96004.34
2023-04-14T03:40:38.613Z,95984.94
2023-04-14T03:43:09.775Z,95991.31
2023-04-14T03:45:41.472Z,95978.59
2023-04-14T03:48:11.849Z,95978.59
2023-04-14T03:50:46.400Z,95986.97
2023-04-14T03:53:14.986Z,95998.69
2023-04-14T03:55:43.574Z,95989.66
2023-04-14T03:58:12.059Z,95992.00
2023-04-14T04:00:40.065Z,95993.66
2023-04-14T04:03:06.807Z,95993.66
2023-04-14T04:05:33.808Z,95980.97
2023-04-14T04:08:03.118Z,95971.97
2023-04-14T04:10:32.792Z,95977.44
2023-04-14T04:13:00.730Z,95972.59
2023-04-14T04:15:31.318Z,95966.25
2023-04-14T04:17:58.501Z,95961.88
2023-04-14T04:20:26.011Z,95974.78
2023-04-14T04:22:56.416Z,95968.59
2023-04-14T04:25:23.142Z,95970.59
2023-04-14T04:27:59.767Z,95969.25
2023-04-14T04:30:27.787Z,95984.97
2023-04-14T04:32:54.528Z,95974.59
2023-04-14T04:35:22.275Z,95973.25
2023-04-14T04:37:49.781Z,95976.94
2023-04-14T04:40:16.870Z,95977.28
2023-04-14T04:42:44.101Z,95976.28
2023-04-14T04:45:19.271Z,95979.97
2023-04-14T04:47:46.085Z,95992.31
2023-04-14T04:50:13.690Z,95992.81
2023-04-14T04:52:40.630Z,95992.31
2023-04-14T04:55:07.354Z,95998.66
2023-04-14T04:57:33.815Z,95995.97
2023-04-14T05:00:00.641Z,96003.84
2023-04-14T05:02:27.444Z,96003.00
2023-04-14T05:04:54.163Z,96009.34
2023-04-14T05:07:21.047Z,96015.69
2023-04-14T05:09:47.499Z,96012.34
2023-04-14T05:12:13.983Z,96013.19
2023-04-14T05:14:40.413Z,96011.03
2023-04-14T05:17:06.931Z,96016.03
2023-04-14T05:19:33.403Z,96011.03
2023-04-14T05:21:59.889Z,96013.69
2023-04-14T05:24:27.295Z,96016.38
2023-04-14T05:27:12.240Z,96023.72
2023-04-14T05:29:40.002Z,96016.69
2023-04-14T05:32:06.459Z,96031.41
2023-04-14T05:34:32.937Z,96025.72
2023-04-14T05:36:59.373Z,96034.09
2023-04-14T05:39:25.879Z,96028.75
2023-04-14T05:41:52.407Z,96016.03
2023-04-14T05:44:18.869Z,96013.88
2023-04-14T05:46:45.429Z,96015.31
2023-04-14T05:49:11.926Z,96014.69
2023-04-14T05:51:38.706Z,96021.72
2023-04-14T05:54:05.757Z,96030.72
2023-04-14T05:56:32.193Z,96039.44
2023-04-14T05:58:58.664Z,96038.78
2023-04-14T06:01:25.311Z,96038.78
2023-04-14T06:03:51.880Z,96031.41
2023-04-14T06:06:20.055Z,96018.22
2023-04-14T06:08:46.498Z,96013.69
2023-04-14T06:11:14.215Z,96019.56
2023-04-14T06:13:40.805Z,96029.44
2023-04-14T06:16:07.494Z,96020.88
2023-04-14T06:18:34.004Z,96034.09
2023-04-14T06:21:01.374Z,96043.44
2023-04-14T06:23:28.056Z,96052.84
2023-04-14T06:25:55.110Z,96034.88
2023-04-14T06:28:23.969Z,96035.72
2023-04-14T06:30:50.495Z,96053.56
2023-04-14T06:33:16.962Z,96055.66
2023-04-14T06:35:46.420Z,96048.00
2023-04-14T06:38:12.917Z,96039.97
2023-04-14T06:40:39.408Z,96027.75
2023-04-14T06:43:06.329Z,96009.53
2023-04-14T06:45:32.827Z,96013.56
2023-04-14T06:47:59.508Z,96012.69
2023-04-14T06:50:26.019Z,95996.66
2023-04-14T06:52:52.482Z,95982.25
2023-04-14T06:55:18.908Z,95986.59
2023-04-14T06:57:45.628Z,95994.44
2023-04-14T07:00:12.464Z,95997.28
2023-04-14T07:02:39.222Z,95999.28
2023-04-14T07:05:06.322Z,96004.00
2023-04-14T07:07:36.964Z,96003.88
2023-04-14T07:10:03.559Z,96004.63
2023-04-14T07:12:30.344Z,95994.22
2023-04-14T07:14:56.781Z,95995.53
2023-04-14T07:17:23.297Z,96002.31
2023-04-14T07:19:49.781Z,96010.88
2023-04-14T07:22:16.661Z,96002.16
2023-04-14T07:24:43.159Z,95996.81
2023-04-14T07:27:15.070Z,95986.56
2023-04-14T07:29:42.225Z,95978.16
2023-04-14T07:32:08.784Z,95980.31
2023-04-14T07:34:35.380Z,95992.03
2023-04-14T07:37:02.139Z,95984.91
2023-04-14T07:39:29.484Z,95992.31
2023-04-14T07:41:58.629Z,95980.81
2023-04-14T07:44:25.174Z,95985.22
2023-04-14T07:46:51.713Z,95991.97
2023-04-14T07:49:18.245Z,95991.59
2023-04-14T07:51:44.792Z,95983.50
2023-04-14T07:54:11.476Z,95978.47
2023-04-14T07:56:37.974Z,95964.16
2023-04-14T07:59:04.415Z,95982.84
2023-04-14T08:01:30.990Z,95989.56
2023-04-14T08:03:57.787Z,96008.00
2023-04-14T08:06:24.445Z,96005.91
2023-04-14T08:08:51.692Z,96011.13
2023-04-14T08:11:18.131Z,96022.38
2023-04-14T08:13:44.702Z,96037.97
2023-04-14T08:16:11.252Z,96040.47
2023-04-14T08:18:39.367Z,96040.97
2023-04-14T08:21:05.886Z,96042.78
2023-04-14T08:23:32.492Z,96032.72
2023-04-14T08:25:59.032Z,96036.69
2023-04-14T08:28:25.757Z,96044.09
2023-04-14T08:30:52.211Z,96037.66
2023-04-14T08:33:18.751Z,96028.59
2023-04-14T08:35:45.414Z,96027.97
2023-04-14T08:38:12.579Z,96025.25
2023-04-14T08:40:43.301Z,96031.59
2023-04-14T08:43:13.014Z,96021.78
2023-04-14T08:45:41.879Z,96014.41
2023-04-14T08:48:09.151Z,96019.59
2023-04-14T08:50:37.667Z,96017.81
2023-04-14T08:53:06.088Z,96024.03
2023-04-14T08:55:33.411Z,96031.28
2023-04-14T08:58:01.228Z,96023.91
2023-04-14T09:00:27.857Z,96034.47
2023-04-14T09:02:54.925Z,96026.25
2023-04-14T09:05:21.897Z,96030.03
2023-04-14T09:07:48.543Z,96029.56
2023-04-14T09:10:15.386Z,96032.69
2023-04-14T09:12:42.259Z,96034.22
2023-04-14T09:15:09.269Z,96050.06
2023-04-14T09:17:36.768Z,96038.38
2023-04-14T09:20:34.788Z,96039.88
2023-04-14T09:22:50.240Z,96042.59
2023-04-14T09:25:18.666Z,96042.44
2023-04-14T09:27:45.523Z,96049.06
2023-04-14T09:30:12.237Z,96058.03
2023-04-14T09:32:39.794Z,96063.03
2023-04-14T09:35:07.011Z,96070.84
2023-04-14T09:37:43.784Z,96066.63
2023-04-14T09:40:11.201Z,96064.94
2023-04-14T09:42:41.456Z,96070.91
2023-04-14T09:45:08.408Z,96075.31
2023-04-14T09:47:35.030Z,96078.22
2023-04-14T09:50:03.461Z,96082.59
2023-04-14T09:52:37.799Z,96089.41
2023-04-14T09:55:06.904Z,96086.28
2023-04-14T09:57:34.638Z,96086.94
2023-04-14T10:00:01.295Z,96087.34
2023-04-14T10:02:27.883Z,96082.69
2023-04-14T10:05:07.204Z,96076.88
2023-04-14T10:07:33.800Z,96075.91
2023-04-14T10:10:06.020Z,96084.84
2023-04-14T10:12:32.743Z,96092.09
2023-04-14T10:15:00.164Z,96099.25
2023-04-14T10:17:29.503Z,96098.31
2023-04-14T10:19:56.850Z,96094.28
2023-04-14T10:22:23.652Z,96102.72
2023-04-14T10:24:51.268Z,96104.34
2023-04-14T10:27:18.094Z,96106.63
2023-04-14T10:29:44.598Z,96115.56
2023-04-14T10:32:14.093Z,96112.88
2023-04-14T10:34:53.299Z,96114.56
2023-04-14T10:37:19.931Z,96114.19
2023-04-14T10:39:54.376Z,96109.91
2023-04-14T10:42:21.181Z,96111.59
2023-04-14T10:45:01.188Z,96115.50
2023-04-14T10:47:28.101Z,96116.28
2023-04-14T10:49:56.705Z,96111.66
2023-04-14T10:52:26.378Z,96114.91
2023-04-14T10:55:07.654Z,96098.28
2023-04-14T10:57:40.814Z,96099.13
2023-04-14T11:00:19.616Z,96114.41
2023-04-14T11:02:58.445Z,96107.38
2023-04-14T11:05:25.693Z,96107.00
2023-04-14T11:07:56.672Z,96105.53
2023-04-14T11:10:24.031Z,96113.47
2023-04-14T11:13:04.132Z,96108.34
2023-04-14T11:15:50.667Z,96105.81
2023-04-14T11:18:26.032Z,96103.13
2023-04-14T11:20:53.054Z,96104.56
2023-04-14T11:23:26.386Z,96107.50
2023-04-14T11:25:53.649Z,96097.50
2023-04-14T11:28:32.559Z,96103.00
2023-04-14T11:31:00.521Z,96107.34
2023-04-14T11:33:37.228Z,96093.03
2023-04-14T11:36:05.636Z,96097.44
2023-04-14T11:38:35.465Z,96093.91
2023-04-14T11:41:02.283Z,96093.56
2023-04-14T11:43:30.636Z,96096.16
2023-04-14T11:45:57.555Z,96103.94
2023-04-14T11:48:24.146Z,96096.50
2023-04-14T11:50:50.890Z,96095.22
2023-04-14T11:53:18.217Z,96100.13
2023-04-14T11:55:46.328Z,96103.75
2023-04-14T11:58:13.225Z,96098.19
2023-04-14T12:00:41.020Z,96099.38
2023-04-14T12:03:08.010Z,96087.81
2023-04-14T12:05:35.597Z,96092.88
2023-04-14T12:08:07.562Z,96090.69
2023-04-14T12:10:37.340Z,96090.75
2023-04-14T12:13:04.909Z,96093.75
2023-04-14T12:15:32.503Z,96093.41
2023-04-14T12:17:59.970Z,96095.03
2023-04-14T12:20:27.166Z,96084.81
2023-04-14T12:23:01.150Z,96095.97
2023-04-14T12:25:31.368Z,96095.78
2023-04-14T12:27:57.925Z,96094.75
2023-04-14T12:30:26.325Z,96088.00
2023-04-14T12:32:52.983Z,96084.75
2023-04-14T12:35:23.920Z,96085.22
2023-04-14T12:37:51.580Z,96090.09
2023-04-14T12:40:18.551Z,96095.94
2023-04-14T12:42:47.368Z,96097.63
2023-04-14T12:45:14.817Z,96086.59
2023-04-14T12:47:41.709Z,96083.91
2023-04-14T12:50:25.849Z,96085.78
2023-04-14T12:52:52.529Z,96082.75
2023-04-14T12:55:23.082Z,96079.94
2023-04-14T12:57:53.688Z,96082.75
2023-04-14T13:00:23.933Z,96087.97
2023-04-14T13:02:51.335Z,96084.16
2023-04-14T13:05:18.017Z,96075.69
2023-04-14T13:07:44.509Z,96080.53
2023-04-14T13:10:11.444Z,96072.88
2023-04-14T13:12:38.247Z,96068.00
2023-04-14T13:15:05.601Z,96074.78
2023-04-14T13:17:32.421Z,96070.16
2023-04-14T13:19:59.035Z,96081.63
2023-04-14T13:22:25.687Z,96077.00
2023-04-14T13:24:52.355Z,96072.38
2023-04-14T13:27:19.307Z,96077.84
2023-04-14T13:29:46.095Z,96078.72
2023-04-14T13:32:12.939Z,96077.03
2023-04-14T13:34:39.960Z,96074.66
2023-04-14T13:37:06.515Z,96084.84
2023-04-14T13:39:33.100Z,96070.91
2023-04-14T13:41:59.636Z,96076.41
2023-04-14T13:44:26.140Z,96074.44
2023-04-14T13:46:52.769Z,96077.41
2023-04-14T13:49:19.333Z,96085.78
2023-04-14T13:51:45.894Z,96085.09
2023-04-14T13:54:12.328Z,96086.16
2023-04-14T13:56:38.824Z,96077.63
2023-04-14T13:59:05.345Z,96074.28
2023-04-14T14:01:31.933Z,96076.78
2023-04-14T14:03:58.959Z,96077.41
2023-04-14T14:06:33.910Z,96085.75
2023-04-14T14:09:06.066Z,96082.22
2023-04-14T14:11:33.330Z,96078.53
2023-04-14T14:14:00.269Z,96076.59
2023-04-14T14:18:57.227Z,96080.38
2023-04-14T14:21:23.712Z,96083.34
2023-04-14T14:23:50.238Z,96076.28
2023-04-14T14:26:16.755Z,96082.97
2023-04-14T14:28:44.527Z,96086.31
2023-04-14T14:31:11.092Z,96080.72
2023-04-14T14:33:38.095Z,96073.03
2023-04-14T14:36:05.101Z,96071.50
2023-04-14T14:38:31.639Z,96069.16
2023-04-14T14:40:58.103Z,96071.31
2023-04-14T14:43:24.627Z,96071.38
2023-04-14T14:45:51.260Z,96082.16
2023-04-14T14:48:17.829Z,96081.41
2023-04-14T14:50:44.322Z,96080.38
2023-04-14T14:53:10.727Z,96084.84
2023-04-14T14:55:37.213Z,96080.78
2023-04-14T14:58:03.910Z,96080.66
2023-04-14T15:00:30.753Z,96079.72
2023-04-14T15:02:57.488Z,96084.00
2023-04-14T15:05:24.129Z,96091.69
2023-04-14T15:07:50.983Z,96083.38
2023-04-14T15:10:17.569Z,96088.16
2023-04-14T15:12:44.085Z,96096.41
2023-04-14T15:15:10.778Z,96089.13
2023-04-14T15:17:37.716Z,96086.47
2023-04-14T15:20:04.876Z,96096.13
2023-04-14T15:22:32.088Z,96095.22
2023-04-14T15:24:58.605Z,96097.84
2023-04-14T15:27:25.350Z,96098.56
2023-04-14T15:29:51.829Z,96096.25
2023-04-14T15:32:24.209Z,96099.66
2023-04-14T15:34:52.112Z,96092.63
2023-04-14T15:37:18.675Z,96096.78
2023-04-14T15:39:45.335Z,96089.22
2023-04-14T15:42:11.851Z,96106.84
2023-04-14T15:44:38.340Z,96092.25
2023-04-14T15:47:05.140Z,96104.47
2023-04-14T15:49:31.649Z,96103.50
2023-04-14T15:51:58.125Z,96104.06
2023-04-14T15:54:24.813Z,96108.91
2023-04-14T15:56:52.479Z,96111.91
2023-04-14T15:59:19.052Z,96106.06
2023-04-14T16:01:46.377Z,96108.69
2023-04-14T16:04:13.149Z,96112.50
2023-04-14T16:06:40.133Z,96110.97
2023-04-14T16:09:06.895Z,96110.63
2023-04-14T16:11:36.375Z,96112.28
2023-04-14T16:14:03.213Z,96108.34
2023-04-14T16:16:29.952Z,96113.41
2023-04-14T16:18:56.493Z,96115.09
2023-04-14T16:21:22.952Z,96117.91
2023-04-14T16:23:49.442Z,96113.00
2023-04-14T16:26:15.995Z,96113.38
2023-04-14T16:28:42.765Z,96116.53
2023-04-14T16:31:09.457Z,96114.28
2023-04-14T16:33:36.042Z,96114.63
2023-04-14T16:36:03.066Z,96109.16
2023-04-14T16:38:29.756Z,96114.06
2023-04-14T16:40:57.318Z,96114.91
2023-04-14T16:43:24.876Z,96115.16
2023-04-14T16:45:51.890Z,96116.09
2023-04-14T16:48:18.886Z,96121.59
2023-04-14T16:50:48.691Z,96107.84
2023-04-14T16:53:15.249Z,96121.75
2023-04-14T16:55:41.852Z,96120.78
2023-04-14T16:58:09.774Z,96127.28
2023-04-14T17:00:37.446Z,96120.41
2023-04-14T17:03:04.751Z,96122.78
2023-04-14T17:05:31.637Z,96126.59
2023-04-14T17:07:58.483Z,96137.16
2023-04-14T17:10:26.257Z,96135.44
2023-04-14T17:12:53.721Z,96135.50
2023-04-14T17:15:20.221Z,96131.16
2023-04-14T17:17:46.758Z,96129.38
2023-04-14T17:20:14.942Z,96137.03
2023-04-14T17:22:41.819Z,96139.91
2023-04-14T17:25:08.662Z,96143.75
2023-04-14T17:27:35.111Z,96138.53
2023-04-14T17:30:03.158Z,96136.16
2023-04-14T17:32:29.667Z,96135.22
2023-04-14T17:34:56.657Z,96138.19
2023-04-14T17:37:23.450Z,96134.41
2023-04-14T17:39:50.007Z,96144.19
2023-04-14T17:42:16.569Z,96132.91
2023-04-14T17:44:43.483Z,96129.69
2023-04-14T17:47:16.772Z,96127.72
2023-04-14T17:49:43.977Z,96129.88
2023-04-14T17:52:19.532Z,96130.22
2023-04-14T17:54:46.559Z,96135.75
2023-04-14T17:57:13.239Z,96129.53
2023-04-14T17:59:41.455Z,96133.94
2023-04-14T18:02:08.965Z,96132.94
2023-04-14T18:04:35.927Z,96135.94
2023-04-14T18:07:02.526Z,96134.28
2023-04-14T18:09:29.120Z,96146.34
2023-04-14T18:11:56.151Z,96139.53
2023-04-14T18:14:22.633Z,96139.38
2023-04-14T18:16:49.238Z,96149.72
2023-04-14T18:19:15.879Z,96145.19
2023-04-14T18:21:44.433Z,96136.28
2023-04-14T18:26:42.084Z,96133.88
2023-04-14T18:29:08.600Z,96129.69
2023-04-14T18:31:35.278Z,96134.91
2023-04-14T18:34:05.572Z,96134.91
2023-04-14T18:36:32.626Z,96135.91
2023-04-14T18:39:00.160Z,96134.59
2023-04-14T18:41:26.975Z,96133.91
2023-04-14T18:43:53.660Z,96134.53
2023-04-14T18:46:21.313Z,96138.84
2023-04-14T18:48:48.425Z,96136.97
2023-04-14T18:51:16.024Z,96130.38
2023-04-14T18:53:44.626Z,96145.22
2023-04-14T18:56:11.233Z,96135.22
2023-04-14T18:58:38.245Z,96135.44
2023-04-14T19:01:04.790Z,96133.22
2023-04-14T19:03:31.870Z,96137.81
2023-04-14T19:05:58.985Z,96136.00
2023-04-14T19:08:25.698Z,96129.66
2023-04-14T19:10:52.435Z,96128.97
2023-04-14T19:13:19.628Z,96134.00
2023-04-14T19:15:46.153Z,96128.66
2023-04-14T19:18:12.654Z,96130.63
2023-04-14T19:20:39.173Z,96124.44
2023-04-14T19:23:05.682Z,96122.88
2023-04-14T19:25:32.219Z,96110.66
2023-04-14T19:28:01.193Z,96116.41
2023-04-14T19:30:29.022Z,96113.78
2023-04-14T19:32:55.528Z,96114.59
2023-04-14T19:35:22.490Z,96115.47
2023-04-14T19:37:49.061Z,96114.19
2023-04-14T19:40:15.652Z,96115.53
2023-04-14T19:42:42.195Z,96111.50
2023-04-14T19:45:10.236Z,96104.47
2023-04-14T19:47:36.696Z,96115.84
2023-04-14T19:50:04.377Z,96109.50
2023-04-14T19:52:30.843Z,96109.97
2023-04-14T19:54:58.161Z,96111.50
2023-04-14T19:57:24.787Z,96114.63
2023-04-14T19:59:51.306Z,96111.03
2023-04-14T20:02:18.856Z,96111.44
2023-04-14T20:04:46.781Z,96109.53
2023-04-14T20:07:13.389Z,96103.00
2023-04-14T20:09:44.844Z,96103.44
2023-04-14T20:12:11.389Z,96099.69
2023-04-14T20:14:37.865Z,96098.91
2023-04-14T20:17:04.459Z,96102.72
2023-04-14T20:19:31.082Z,96098.41
2023-04-14T20:21:57.851Z,96100.75
2023-04-14T20:24:24.394Z,96099.63
2023-04-14T20:26:50.883Z,96099.25
2023-04-14T20:29:17.498Z,96090.31
2023-04-14T20:31:44.246Z,96098.19
2023-04-14T20:34:11.556Z,96091.53
2023-04-14T20:36:38.037Z,96097.69
2023-04-14T20:39:05.792Z,96090.28
2023-04-14T20:41:36.540Z,96100.72
2023-04-14T20:44:06.206Z,96095.94
2023-04-14T20:46:32.913Z,96107.00
2023-04-14T20:49:01.046Z,96105.66
2023-04-14T20:51:27.915Z,96099.25
2023-04-14T20:53:55.200Z,96095.34
2023-04-14T20:56:22.518Z,96100.38
2023-04-14T20:58:49.185Z,96103.34
2023-04-14T21:01:15.652Z,96103.56
2023-04-14T21:03:42.281Z,96097.78
2023-04-14T21:06:08.895Z,96107.78
2023-04-14T21:08:35.722Z,96106.78
2023-04-14T21:11:15.622Z,96107.66
2023-04-14T21:15:43.559Z,96111.63
2023-04-14T21:16:31.011Z,96118.34
2023-04-14T21:18:57.514Z,96118.91
2023-04-14T21:21:24.133Z,96113.19
2023-04-14T21:23:50.878Z,96124.59
2023-04-14T21:26:17.792Z,96120.09
2023-04-14T21:28:44.267Z,96130.00
2023-04-14T21:31:11.303Z,96130.03
2023-04-14T21:33:39.641Z,96128.34
2023-04-14T21:36:07.045Z,96140.06
2023-04-14T21:38:33.606Z,96139.03
2023-04-14T21:41:00.250Z,96133.34
2023-04-14T21:43:26.770Z,96136.84
2023-04-14T21:45:53.803Z,96141.09
2023-04-14T21:48:20.847Z,96133.22
2023-04-14T21:50:47.332Z,96135.22
2023-04-14T21:53:14.120Z,96136.47
2023-04-14T21:55:41.031Z,96139.47
2023-04-14T21:58:07.560Z,96135.91
2023-04-14T22:00:34.055Z,96136.06
2023-04-14T22:03:00.707Z,96132.06
2023-04-14T22:05:27.312Z,96130.75
2023-04-14T22:07:54.963Z,96136.09
2023-04-14T22:10:24.406Z,96134.06
2023-04-14T22:12:52.048Z,96141.47
2023-04-14T22:15:18.675Z,96132.75
2023-04-14T22:17:46.069Z,96132.41
2023-04-14T22:20:12.613Z,96136.78
2023-04-14T22:22:39.113Z,96131.41
2023-04-14T22:25:05.958Z,96134.75
2023-04-14T22:27:33.865Z,96141.47
2023-04-14T22:30:01.398Z,96132.41
2023-04-14T22:32:28.276Z,96129.91
2023-04-14T22:34:54.773Z,96141.44
2023-04-14T22:37:21.469Z,96138.94
2023-04-14T22:39:47.960Z,96130.41
2023-04-14T22:42:14.417Z,96136.78
2023-04-14T22:44:41.188Z,96136.75
2023-04-14T22:47:07.660Z,96143.78
2023-04-14T22:49:34.128Z,96137.44
2023-04-14T22:52:00.840Z,96132.91
2023-04-14T22:54:27.337Z,96127.56
2023-04-14T22:56:53.863Z,96126.72
2023-04-14T22:59:20.429Z,96135.75
2023-04-14T23:01:47.827Z,96136.22
2023-04-14T23:04:14.755Z,96130.56
2023-04-14T23:06:41.350Z,96130.44
2023-04-14T23:09:07.897Z,96136.75
2023-04-14T23:11:34.564Z,96138.13
2023-04-14T23:14:01.563Z,96132.75
2023-04-14T23:16:28.245Z,96137.78
2023-04-14T23:18:54.807Z,96131.75
2023-04-14T23:21:25.051Z,96139.44
2023-04-14T23:23:51.671Z,96127.56
2023-04-14T23:26:19.631Z,96133.75
2023-04-14T23:28:46.466Z,96141.78
2023-04-14T23:31:13.323Z,96132.75
2023-04-14T23:33:40.056Z,96126.97
2023-04-14T23:36:06.950Z,96130.41
2023-04-14T23:38:33.562Z,96130.75
2023-04-14T23:41:00.376Z,96138.06
2023-04-14T23:43:27.590Z,96131.41
2023-04-14T23:45:54.266Z,96121.88
2023-04-14T23:48:20.848Z,96128.50
2023-04-14T23:50:58.676Z,96129.38
2023-04-14T23:53:28.146Z,96125.41
2023-04-14T23:55:54.737Z,96122.38
2023-04-14T23:58:26.573Z,96128.44
